sensor_id;sensor_type;location;lat;lon;timestamp;temperature;humidity
44747;DHT22;30472;49.490;10.972;2023-03-18T11:54:36;20.20;99.90
44747;DHT22;30472;49.490;10.972;2023-03-18T11:57:21;20.00;99.90
44747;DHT22;30472;49.490;10.972;2023-03-18T12:02:58;19.90;99.90
44747;DHT22;30472;49.490;10.972;2023-03-18T12:11:06;19.50;99.90
44747;DHT22;30472;49.490;10.972;2023-03-18T12:16:26;19.70;99.90
44747;DHT22;30472;49.490;10.972;2023-03-18T12:19:15;19.60;99.90
44747;DHT22;30472;49.490;10.972;2023-03-18T12:27:26;19.70;99.90
44747;DHT22;30472;49.490;10.972;2023-03-18T12:32:32;19.30;99.90
44747;DHT22;30472;49.490;10.972;2023-03-18T12:37:48;19.50;99.90
44747;DHT22;30472;49.490;10.972;2023-03-18T12:40:36;19.40;99.90
44747;DHT22;30472;49.490;10.972;2023-03-18T12:45:45;19.20;99.90
44747;DHT22;30472;49.490;10.972;2023-03-18T12:48:17;19.30;99.90
44747;DHT22;30472;49.490;10.972;2023-03-18T12:50:52;19.30;99.90
44747;DHT22;30472;49.490;10.972;2023-03-18T12:53:33;19.40;99.90
44747;DHT22;30472;49.490;10.972;2023-03-18T12:56:04;19.60;99.90
44747;DHT22;30472;49.490;10.972;2023-03-18T12:58:54;19.60;99.90
44747;DHT22;30472;49.490;10.972;2023-03-18T13:01:35;19.90;99.90
44747;DHT22;30472;49.490;10.972;2023-03-18T13:04:13;20.10;99.90
44747;DHT22;30472;49.490;10.972;2023-03-18T13:06:44;20.00;99.90
44747;DHT22;30472;49.490;10.972;2023-03-18T13:17:16;19.80;99.90
44747;DHT22;30472;49.490;10.972;2023-03-18T13:19:44;19.70;99.90
44747;DHT22;30472;49.490;10.972;2023-03-18T13:28:35;19.80;99.90
44747;DHT22;30472;49.490;10.972;2023-03-18T13:31:22;19.90;99.90
44747;DHT22;30472;49.490;10.972;2023-03-18T13:34:03;19.60;99.90
44747;DHT22;30472;49.490;10.972;2023-03-18T13:39:59;19.80;99.90
44747;DHT22;30472;49.490;10.972;2023-03-18T13:42:33;19.50;99.90
44747;DHT22;30472;49.490;10.972;2023-03-18T13:45:05;19.60;99.90
44747;DHT22;30472;49.490;10.972;2023-03-18T13:47:34;19.60;99.90
44747;DHT22;30472;49.490;10.972;2023-03-18T13:50:06;19.60;99.90
44747;DHT22;30472;49.490;10.972;2023-03-18T13:52:38;19.50;99.90
44747;DHT22;30472;49.490;10.972;2023-03-18T13:55:28;19.60;99.90
44747;DHT22;30472;49.490;10.972;2023-03-18T13:58:14;19.20;99.90
44747;DHT22;30472;49.490;10.972;2023-03-18T14:00:43;19.20;99.90
44747;DHT22;30472;49.490;10.972;2023-03-18T14:03:19;19.10;99.90
44747;DHT22;30472;49.490;10.972;2023-03-18T14:05:50;19.00;99.90
44747;DHT22;30472;49.490;10.972;2023-03-18T14:16:14;18.50;99.90
44747;DHT22;30472;49.490;10.972;2023-03-18T14:19:00;18.30;99.90
44747;DHT22;30472;49.490;10.972;2023-03-18T14:21:29;18.40;99.90
44747;DHT22;30472;49.490;10.972;2023-03-18T14:24:22;18.50;99.90
44747;DHT22;30472;49.490;10.972;2023-03-18T14:29:40;18.80;99.90
44747;DHT22;30472;49.490;10.972;2023-03-18T14:34:58;19.00;99.90
44747;DHT22;30472;49.490;10.972;2023-03-18T14:37:30;18.90;99.90
44747;DHT22;30472;49.490;10.972;2023-03-18T14:40:03;18.80;99.90
44747;DHT22;30472;49.490;10.972;2023-03-18T14:42:39;18.90;99.90
44747;DHT22;30472;49.490;10.972;2023-03-18T14:45:16;18.90;99.90
44747;DHT22;30472;49.490;10.972;2023-03-18T14:50:39;18.70;99.90
44747;DHT22;30472;49.490;10.972;2023-03-18T14:55:36;18.40;99.90
44747;DHT22;30472;49.490;10.972;2023-03-18T14:58:02;18.40;99.90
44747;DHT22;30472;49.490;10.972;2023-03-18T15:00:33;18.40;99.90
44747;DHT22;30472;49.490;10.972;2023-03-18T15:03:27;18.40;99.90
44747;DHT22;30472;49.490;10.972;2023-03-18T15:05:58;18.30;99.90
44747;DHT22;30472;49.490;10.972;2023-03-18T15:08:27;18.40;99.90
44747;DHT22;30472;49.490;10.972;2023-03-18T15:10:53;18.50;99.90
44747;DHT22;30472;49.490;10.972;2023-03-18T15:13:22;18.50;99.90
44747;DHT22;30472;49.490;10.972;2023-03-18T15:15:49;18.50;99.90
44747;DHT22;30472;49.490;10.972;2023-03-18T15:18:23;18.40;99.90
44747;DHT22;30472;49.490;10.972;2023-03-18T15:23:33;18.60;99.90
44747;DHT22;30472;49.490;10.972;2023-03-18T15:26:13;18.80;99.90
44747;DHT22;30472;49.490;10.972;2023-03-18T15:28:45;18.70;99.90
44747;DHT22;30472;49.490;10.972;2023-03-18T15:31:19;18.40;99.90
44747;DHT22;30472;49.490;10.972;2023-03-18T15:33:53;18.60;99.90
44747;DHT22;30472;49.490;10.972;2023-03-18T15:36:19;18.50;99.90
44747;DHT22;30472;49.490;10.972;2023-03-18T15:38:47;18.50;99.90
44747;DHT22;30472;49.490;10.972;2023-03-18T15:41:14;18.30;99.90
44747;DHT22;30472;49.490;10.972;2023-03-18T15:43:43;18.10;99.90
44747;DHT22;30472;49.490;10.972;2023-03-18T15:46:22;18.10;99.90
44747;DHT22;30472;49.490;10.972;2023-03-18T15:48:54;18.00;99.90
44747;DHT22;30472;49.490;10.972;2023-03-18T15:51:25;18.00;99.90
44747;DHT22;30472;49.490;10.972;2023-03-18T15:53:53;18.00;99.90
44747;DHT22;30472;49.490;10.972;2023-03-18T15:56:25;18.10;99.90
44747;DHT22;30472;49.490;10.972;2023-03-18T15:59:31;18.10;99.90
44747;DHT22;30472;49.490;10.972;2023-03-18T16:01:53;18.10;99.90
44747;DHT22;30472;49.490;10.972;2023-03-18T16:04:19;18.00;99.90
44747;DHT22;30472;49.490;10.972;2023-03-18T16:06:46;17.90;99.90
44747;DHT22;30472;49.490;10.972;2023-03-18T16:09:23;17.80;99.90
44747;DHT22;30472;49.490;10.972;2023-03-18T16:12:02;17.70;99.90
44747;DHT22;30472;49.490;10.972;2023-03-18T16:14:39;17.60;99.90
44747;DHT22;30472;49.490;10.972;2023-03-18T16:17:11;17.50;99.90
44747;DHT22;30472;49.490;10.972;2023-03-18T16:19:36;17.30;99.90
44747;DHT22;30472;49.490;10.972;2023-03-18T16:22:02;17.20;99.90
44747;DHT22;30472;49.490;10.972;2023-03-18T16:24:28;17.10;99.90
44747;DHT22;30472;49.490;10.972;2023-03-18T16:26:54;16.90;99.90
44747;DHT22;30472;49.490;10.972;2023-03-18T16:29:30;16.80;99.90
44747;DHT22;30472;49.490;10.972;2023-03-18T16:31:57;16.70;99.90
44747;DHT22;30472;49.490;10.972;2023-03-18T16:34:23;16.50;99.90
44747;DHT22;30472;49.490;10.972;2023-03-18T16:36:50;16.40;99.90
44747;DHT22;30472;49.490;10.972;2023-03-18T16:39:24;16.30;99.90
44747;DHT22;30472;49.490;10.972;2023-03-18T16:41:51;16.20;99.90
44747;DHT22;30472;49.490;10.972;2023-03-18T16:44:20;16.00;99.90
44747;DHT22;30472;49.490;10.972;2023-03-18T16:46:48;15.80;99.90
44747;DHT22;30472;49.490;10.972;2023-03-18T16:49:23;15.80;99.90
44747;DHT22;30472;49.490;10.972;2023-03-18T16:51:49;15.70;99.90
44747;DHT22;30472;49.490;10.972;2023-03-18T16:54:20;15.60;99.90
44747;DHT22;30472;49.490;10.972;2023-03-18T16:56:48;15.50;99.90
44747;DHT22;30472;49.490;10.972;2023-03-18T16:59:15;15.40;99.90
44747;DHT22;30472;49.490;10.972;2023-03-18T17:01:42;15.20;99.90
44747;DHT22;30472;49.490;10.972;2023-03-18T17:04:27;15.10;99.90
44747;DHT22;30472;49.490;10.972;2023-03-18T17:06:54;15.00;99.90
44747;DHT22;30472;49.490;10.972;2023-03-18T17:09:20;14.90;99.90
44747;DHT22;30472;49.490;10.972;2023-03-18T17:11:48;14.70;99.90
44747;DHT22;30472;49.490;10.972;2023-03-18T17:14:32;14.70;99.90
44747;DHT22;30472;49.490;10.972;2023-03-18T17:17:01;14.90;99.90
44747;DHT22;30472;49.490;10.972;2023-03-18T17:19:27;14.90;99.90
44747;DHT22;30472;49.490;10.972;2023-03-18T17:21:54;14.70;99.90
44747;DHT22;30472;49.490;10.972;2023-03-18T17:24:20;14.50;99.90
44747;DHT22;30472;49.490;10.972;2023-03-18T17:26:48;14.40;99.90
44747;DHT22;30472;49.490;10.972;2023-03-18T17:29:25;14.30;99.90
44747;DHT22;30472;49.490;10.972;2023-03-18T17:31:52;14.20;99.90
44747;DHT22;30472;49.490;10.972;2023-03-18T17:34:18;14.20;99.90
44747;DHT22;30472;49.490;10.972;2023-03-18T17:36:45;14.10;99.90
44747;DHT22;30472;49.490;10.972;2023-03-18T17:39:10;13.90;99.90
44747;DHT22;30472;49.490;10.972;2023-03-18T17:41:36;13.80;99.90
44747;DHT22;30472;49.490;10.972;2023-03-18T17:44:02;13.60;99.90
44747;DHT22;30472;49.490;10.972;2023-03-18T17:46:27;13.50;99.90
44747;DHT22;30472;49.490;10.972;2023-03-18T17:48:55;13.50;99.90
44747;DHT22;30472;49.490;10.972;2023-03-18T17:51:21;13.50;99.90
44747;DHT22;30472;49.490;10.972;2023-03-18T17:53:52;13.60;99.90
44747;DHT22;30472;49.490;10.972;2023-03-18T17:56:19;13.50;99.90
44747;DHT22;30472;49.490;10.972;2023-03-18T17:58:47;13.50;99.90
44747;DHT22;30472;49.490;10.972;2023-03-18T18:01:18;13.40;99.90
44747;DHT22;30472;49.490;10.972;2023-03-18T18:03:45;13.30;99.90
44747;DHT22;30472;49.490;10.972;2023-03-18T18:06:20;13.20;99.90
44747;DHT22;30472;49.490;10.972;2023-03-18T18:08:47;13.20;99.90
44747;DHT22;30472;49.490;10.972;2023-03-18T18:13:41;13.00;99.90
44747;DHT22;30472;49.490;10.972;2023-03-18T18:16:07;13.10;99.90
44747;DHT22;30472;49.490;10.972;2023-03-18T18:18:35;13.00;99.90
44747;DHT22;30472;49.490;10.972;2023-03-18T18:21:02;13.00;99.90
44747;DHT22;30472;49.490;10.972;2023-03-18T18:23:34;13.00;99.90
44747;DHT22;30472;49.490;10.972;2023-03-18T18:26:02;13.00;99.90
44747;DHT22;30472;49.490;10.972;2023-03-18T18:28:31;12.90;99.90
44747;DHT22;30472;49.490;10.972;2023-03-18T18:30:57;12.80;99.90
44747;DHT22;30472;49.490;10.972;2023-03-18T18:33:24;12.90;99.90
44747;DHT22;30472;49.490;10.972;2023-03-18T18:35:49;13.10;99.90
44747;DHT22;30472;49.490;10.972;2023-03-18T18:38:15;13.20;99.90
44747;DHT22;30472;49.490;10.972;2023-03-18T18:40:40;13.20;99.90
44747;DHT22;30472;49.490;10.972;2023-03-18T18:43:06;13.00;99.90
44747;DHT22;30472;49.490;10.972;2023-03-18T18:45:33;13.00;99.90
44747;DHT22;30472;49.490;10.972;2023-03-18T18:47:59;13.00;99.90
44747;DHT22;30472;49.490;10.972;2023-03-18T18:50:28;13.00;99.90
44747;DHT22;30472;49.490;10.972;2023-03-18T18:52:57;13.10;99.90
44747;DHT22;30472;49.490;10.972;2023-03-18T18:55:23;13.10;99.90
44747;DHT22;30472;49.490;10.972;2023-03-18T18:57:49;13.20;99.90
44747;DHT22;30472;49.490;10.972;2023-03-18T19:00:22;13.10;99.90
44747;DHT22;30472;49.490;10.972;2023-03-18T19:02:52;13.10;99.90
44747;DHT22;30472;49.490;10.972;2023-03-18T19:05:21;13.00;99.90
44747;DHT22;30472;49.490;10.972;2023-03-18T19:07:47;13.00;99.90
44747;DHT22;30472;49.490;10.972;2023-03-18T19:10:15;13.00;99.90
44747;DHT22;30472;49.490;10.972;2023-03-18T19:12:42;12.90;99.90
44747;DHT22;30472;49.490;10.972;2023-03-18T19:15:11;12.90;99.90
44747;DHT22;30472;49.490;10.972;2023-03-18T19:17:37;12.80;99.90
44747;DHT22;30472;49.490;10.972;2023-03-18T19:20:19;12.80;99.90
44747;DHT22;30472;49.490;10.972;2023-03-18T19:22:49;12.70;99.90
44747;DHT22;30472;49.490;10.972;2023-03-18T19:25:15;12.70;99.90
44747;DHT22;30472;49.490;10.972;2023-03-18T19:27:40;12.60;99.90
44747;DHT22;30472;49.490;10.972;2023-03-18T19:30:21;12.50;99.90
44747;DHT22;30472;49.490;10.972;2023-03-18T19:32:48;12.50;99.90
44747;DHT22;30472;49.490;10.972;2023-03-18T19:35:14;12.50;99.90
44747;DHT22;30472;49.490;10.972;2023-03-18T19:37:42;12.40;99.90
44747;DHT22;30472;49.490;10.972;2023-03-18T19:40:31;12.30;99.90
44747;DHT22;30472;49.490;10.972;2023-03-18T19:42:58;12.30;99.90
44747;DHT22;30472;49.490;10.972;2023-03-18T19:45:24;12.20;99.90
44747;DHT22;30472;49.490;10.972;2023-03-18T19:47:50;12.30;99.90
44747;DHT22;30472;49.490;10.972;2023-03-18T19:50:18;12.30;99.90
44747;DHT22;30472;49.490;10.972;2023-03-18T19:52:44;12.30;99.90
44747;DHT22;30472;49.490;10.972;2023-03-18T19:55:13;12.20;99.90
44747;DHT22;30472;49.490;10.972;2023-03-18T19:57:43;12.10;99.90
44747;DHT22;30472;49.490;10.972;2023-03-18T20:00:22;12.10;99.90
44747;DHT22;30472;49.490;10.972;2023-03-18T20:02:48;12.00;99.90
44747;DHT22;30472;49.490;10.972;2023-03-18T20:05:20;11.80;99.90
44747;DHT22;30472;49.490;10.972;2023-03-18T20:07:46;11.70;99.90
44747;DHT22;30472;49.490;10.972;2023-03-18T20:10:15;11.60;99.90
44747;DHT22;30472;49.490;10.972;2023-03-18T20:12:46;11.50;99.90
44747;DHT22;30472;49.490;10.972;2023-03-18T20:15:18;11.40;99.90
44747;DHT22;30472;49.490;10.972;2023-03-18T20:17:46;11.20;99.90
44747;DHT22;30472;49.490;10.972;2023-03-18T20:20:17;11.10;99.90
44747;DHT22;30472;49.490;10.972;2023-03-18T20:22:49;11.00;99.90
44747;DHT22;30472;49.490;10.972;2023-03-18T20:25:20;10.90;99.90
44747;DHT22;30472;49.490;10.972;2023-03-18T20:27:46;10.70;99.90
44747;DHT22;30472;49.490;10.972;2023-03-18T20:30:28;10.60;99.90
44747;DHT22;30472;49.490;10.972;2023-03-18T20:32:55;10.50;99.90
44747;DHT22;30472;49.490;10.972;2023-03-18T20:35:23;10.40;99.90
44747;DHT22;30472;49.490;10.972;2023-03-18T20:37:51;10.30;99.90
44747;DHT22;30472;49.490;10.972;2023-03-18T20:40:25;10.30;99.90
44747;DHT22;30472;49.490;10.972;2023-03-18T20:42:51;10.20;99.90
44747;DHT22;30472;49.490;10.972;2023-03-18T20:45:17;10.10;99.90
44747;DHT22;30472;49.490;10.972;2023-03-18T20:47:44;10.10;99.90
44747;DHT22;30472;49.490;10.972;2023-03-18T20:50:13;9.90;99.90
44747;DHT22;30472;49.490;10.972;2023-03-18T20:52:40;9.90;99.90
44747;DHT22;30472;49.490;10.972;2023-03-18T20:55:19;9.90;99.90
44747;DHT22;30472;49.490;10.972;2023-03-18T20:57:45;10.00;99.90
44747;DHT22;30472;49.490;10.972;2023-03-18T21:00:19;10.10;99.90
44747;DHT22;30472;49.490;10.972;2023-03-18T21:02:49;10.10;99.90
44747;DHT22;30472;49.490;10.972;2023-03-18T21:05:16;10.20;99.90
44747;DHT22;30472;49.490;10.972;2023-03-18T21:07:42;10.10;99.90
44747;DHT22;30472;49.490;10.972;2023-03-18T21:10:26;10.10;99.90
44747;DHT22;30472;49.490;10.972;2023-03-18T21:12:52;10.10;99.90
44747;DHT22;30472;49.490;10.972;2023-03-18T21:15:23;10.10;99.90
44747;DHT22;30472;49.490;10.972;2023-03-18T21:17:49;9.90;99.90
44747;DHT22;30472;49.490;10.972;2023-03-18T21:20:18;9.90;99.90
44747;DHT22;30472;49.490;10.972;2023-03-18T21:22:45;9.90;99.90
44747;DHT22;30472;49.490;10.972;2023-03-18T21:25:18;9.80;99.90
44747;DHT22;30472;49.490;10.972;2023-03-18T21:27:44;9.90;99.90
44747;DHT22;30472;49.490;10.972;2023-03-18T21:30:11;9.80;99.90
44747;DHT22;30472;49.490;10.972;2023-03-18T21:32:36;9.80;99.90
44747;DHT22;30472;49.490;10.972;2023-03-18T21:35:04;9.80;99.90
44747;DHT22;30472;49.490;10.972;2023-03-18T21:37:31;9.80;99.90
44747;DHT22;30472;49.490;10.972;2023-03-18T21:39:56;9.80;99.90
44747;DHT22;30472;49.490;10.972;2023-03-18T21:42:24;9.60;99.90
44747;DHT22;30472;49.490;10.972;2023-03-18T21:44:52;9.60;99.90
44747;DHT22;30472;49.490;10.972;2023-03-18T21:47:20;9.40;99.90
44747;DHT22;30472;49.490;10.972;2023-03-18T21:49:46;9.40;99.90
44747;DHT22;30472;49.490;10.972;2023-03-18T21:52:32;9.30;99.90
44747;DHT22;30472;49.490;10.972;2023-03-18T21:54:59;9.30;99.90
44747;DHT22;30472;49.490;10.972;2023-03-18T21:57:25;9.20;99.90
44747;DHT22;30472;49.490;10.972;2023-03-18T21:59:51;9.10;99.90
44747;DHT22;30472;49.490;10.972;2023-03-18T22:02:33;9.00;99.90
44747;DHT22;30472;49.490;10.972;2023-03-18T22:05:01;9.00;99.90
44747;DHT22;30472;49.490;10.972;2023-03-18T22:07:29;8.90;99.90
44747;DHT22;30472;49.490;10.972;2023-03-18T22:09:56;8.80;99.90
44747;DHT22;30472;49.490;10.972;2023-03-18T22:12:30;8.70;99.90
44747;DHT22;30472;49.490;10.972;2023-03-18T22:14:56;8.60;99.90
44747;DHT22;30472;49.490;10.972;2023-03-18T22:17:28;8.60;99.90
44747;DHT22;30472;49.490;10.972;2023-03-18T22:19:55;8.60;99.90
44747;DHT22;30472;49.490;10.972;2023-03-18T22:22:23;8.50;99.90
44747;DHT22;30472;49.490;10.972;2023-03-18T22:24:49;8.50;99.90
44747;DHT22;30472;49.490;10.972;2023-03-18T22:29:44;8.40;99.90
44747;DHT22;30472;49.490;10.972;2023-03-18T22:34:56;8.40;99.90
44747;DHT22;30472;49.490;10.972;2023-03-18T22:37:23;8.50;99.90
44747;DHT22;30472;49.490;10.972;2023-03-18T22:39:49;8.60;99.90
44747;DHT22;30472;49.490;10.972;2023-03-18T22:42:18;8.50;99.90
44747;DHT22;30472;49.490;10.972;2023-03-18T22:44:44;8.50;99.90
44747;DHT22;30472;49.490;10.972;2023-03-18T22:47:15;8.40;99.90
44747;DHT22;30472;49.490;10.972;2023-03-18T22:49:41;8.30;99.90
44747;DHT22;30472;49.490;10.972;2023-03-18T22:52:33;8.30;99.90
44747;DHT22;30472;49.490;10.972;2023-03-18T22:55:00;8.40;99.90
44747;DHT22;30472;49.490;10.972;2023-03-18T22:57:27;8.30;99.90
44747;DHT22;30472;49.490;10.972;2023-03-18T22:59:54;8.20;99.90
44747;DHT22;30472;49.490;10.972;2023-03-18T23:02:25;8.10;99.90
44747;DHT22;30472;49.490;10.972;2023-03-18T23:04:53;8.10;99.90
44747;DHT22;30472;49.490;10.972;2023-03-18T23:07:23;8.00;99.90
44747;DHT22;30472;49.490;10.972;2023-03-18T23:09:51;7.90;99.90
44747;DHT22;30472;49.490;10.972;2023-03-18T23:12:16;7.90;99.90
44747;DHT22;30472;49.490;10.972;2023-03-18T23:14:43;7.90;99.90
44747;DHT22;30472;49.490;10.972;2023-03-18T23:17:16;7.80;99.90
44747;DHT22;30472;49.490;10.972;2023-03-18T23:19:43;7.70;99.90
44747;DHT22;30472;49.490;10.972;2023-03-18T23:22:10;7.70;99.90
44747;DHT22;30472;49.490;10.972;2023-03-18T23:24:36;7.60;99.90
44747;DHT22;30472;49.490;10.972;2023-03-18T23:27:02;7.50;99.90
44747;DHT22;30472;49.490;10.972;2023-03-18T23:29:27;7.40;99.90
44747;DHT22;30472;49.490;10.972;2023-03-18T23:31:53;7.40;99.90
44747;DHT22;30472;49.490;10.972;2023-03-18T23:34:19;7.30;99.90
44747;DHT22;30472;49.490;10.972;2023-03-18T23:36:44;7.30;99.90
44747;DHT22;30472;49.490;10.972;2023-03-18T23:39:11;7.20;99.90
44747;DHT22;30472;49.490;10.972;2023-03-18T23:41:36;7.10;99.90
44747;DHT22;30472;49.490;10.972;2023-03-18T23:44:02;7.10;99.90
44747;DHT22;30472;49.490;10.972;2023-03-18T23:46:27;7.00;99.90
44747;DHT22;30472;49.490;10.972;2023-03-18T23:48:53;7.00;99.90
44747;DHT22;30472;49.490;10.972;2023-03-18T23:51:20;7.20;99.90
44747;DHT22;30472;49.490;10.972;2023-03-18T23:53:45;7.30;99.90
44747;DHT22;30472;49.490;10.972;2023-03-18T23:56:11;7.40;99.90
44747;DHT22;30472;49.490;10.972;2023-03-18T23:58:37;7.40;99.90
